Time;durP1;ratioP1;P1;durP2;ratioP2;P2;SDS_P1;SDS_P2;PMS_P1;PMS_P2;Temp;Humidity;BMP_temperature;BMP_pressure;BME280_temperature;BME280_humidity;BME280_pressure;Samples;Min_cycle;Max_cycle;Signal;HPM_P1;HPM_P2
2021/09/21 00:00:02;;;;;;;;;;;15.70;99.90;15.80;100048.00;;;;338176;28;83452;-93
2021/09/21 00:00:14;;;;;;;;;;;15.70;99.90;15.80;100044.00;;;;339870;28;91439;-93
2021/09/21 00:00:25;;;;;;;;;;;15.60;99.90;15.80;100034.00;;;;334261;29;82587;-93
2021/09/21 00:00:37;;;;;;;;;;;15.60;99.90;15.80;100042.00;;;;335547;28;91998;-92
2021/09/21 00:00:49;;;;;;;;;;;15.60;99.90;15.70;100049.00;;;;339368;28;82522;-92
2021/09/21 00:01:02;;;;;;;;;;;15.60;99.90;15.80;100047.00;;;;337735;28;90303;-93
2021/09/21 00:01:15;;;;;;;;;;;15.60;99.90;15.90;100043.00;;;;335294;29;83519;-93
2021/09/21 00:01:26;;;;;;;;;;;15.60;99.90;15.90;100049.00;;;;336230;28;91429;-93
2021/09/21 00:01:38;;;;;;;;;;;15.60;99.90;15.80;100046.00;;;;339467;28;82512;-93
2021/09/21 00:01:50;;;;;;;;;;;15.60;99.90;15.80;100046.00;;;;334558;29;90979;-93
2021/09/21 00:02:02;;;;;;;;;;;15.60;99.90;15.80;100040.00;;;;337874;28;82502;-93
2021/09/21 00:02:14;;;;;;;;;;;15.60;99.90;15.80;100046.00;;;;334816;29;90368;-93
2021/09/21 00:02:26;;;;;;;;;;;15.60;99.90;15.80;100047.00;;;;338194;28;82504;-93
2021/09/21 00:02:38;;;;;;;;;;;15.60;99.90;15.80;100052.00;;;;337500;28;92434;-92
2021/09/21 00:02:51;;;;;;;;;;;15.60;99.90;15.80;100047.00;;;;340744;28;82541;-93
2021/09/21 00:03:02;;;;;;;;;;;15.60;99.90;15.90;100048.00;;;;340317;28;91419;-92
2021/09/21 00:03:14;;;;;;;;;;;15.60;99.90;15.80;100048.00;;;;338051;28;82549;-92
2021/09/21 00:03:26;;;;;;;;;;;15.60;99.90;15.80;100044.00;;;;337612;28;90305;-93
2021/09/21 00:03:39;;;;;;;;;;;15.60;99.90;15.80;100058.00;;;;339387;28;83438;-92
2021/09/21 00:03:51;;;;;;;;;;;15.60;99.90;15.80;100044.00;;;;338900;28;91240;-93
2021/09/21 00:04:03;;;;;;;;;;;15.60;99.90;15.80;100047.00;;;;339380;28;83400;-93
2021/09/21 00:04:15;;;;;;;;;;;15.60;99.90;15.70;100043.00;;;;340260;28;91538;-94
2021/09/21 00:04:27;;;;;;;;;;;15.60;99.90;15.70;100048.00;;;;338198;28;83590;-93
2021/09/21 00:04:39;;;;;;;;;;;15.60;99.90;15.70;100048.00;;;;338745;28;90403;-93
2021/09/21 00:04:50;;;;;;;;;;;15.50;99.90;15.70;100044.00;;;;340365;28;82620;-93
2021/09/21 00:05:03;;;;;;;;;;;15.50;99.90;15.80;100052.00;;;;337551;28;89025;-93
2021/09/21 00:05:15;;;;;;;;;;;15.50;99.90;15.80;100042.00;;;;336607;28;82614;-92
2021/09/21 00:05:27;;;;;;;;;;;15.50;99.90;15.80;100036.00;;;;334809;29;90916;-92
2021/09/21 00:05:39;;;;;;;;;;;15.50;99.90;15.80;100050.00;;;;337213;28;83556;-93
2021/09/21 00:05:50;;;;;;;;;;;15.50;99.90;15.80;100044.00;;;;336204;28;91297;-93
2021/09/21 00:06:03;;;;;;;;;;;15.50;99.90;15.80;100049.00;;;;335404;29;83417;-93
2021/09/21 00:06:15;;;;;;;;;;;15.50;99.90;15.90;100051.00;;;;336406;28;91506;-94
2021/09/21 00:06:27;;;;;;;;;;;15.50;99.90;15.90;100048.00;;;;336833;28;83498;-93
2021/09/21 00:06:39;;;;;;;;;;;15.60;99.90;15.80;100052.00;;;;337620;28;92353;-93
2021/09/21 00:06:51;;;;;;;;;;;15.60;99.90;15.80;100050.00;;;;336726;28;82546;-92
2021/09/21 00:07:03;;;;;;;;;;;15.50;99.90;15.80;100043.00;;;;337501;28;89598;-93
2021/09/21 00:07:14;;;;;;;;;;;15.60;99.90;15.80;100040.00;;;;339517;28;82488;-93
2021/09/21 00:07:26;;;;;;;;;;;15.50;99.90;15.80;100046.00;;;;337575;28;91998;-94
2021/09/21 00:07:39;;;;;;;;;;;15.50;99.90;15.80;100039.00;;;;337216;28;83371;-93
2021/09/21 00:07:51;;;;;;;;;;;15.50;99.90;15.80;100048.00;;;;337675;28;91600;-93
2021/09/21 00:08:04;;;;;;;;;;;15.50;99.90;15.80;100040.00;;;;337576;28;83354;-93
2021/09/21 00:08:15;;;;;;;;;;;15.50;99.90;15.80;100050.00;;;;334748;29;90584;-93
2021/09/21 00:08:27;;;;;;;;;;;15.50;99.90;15.80;100053.00;;;;336762;28;84259;-93
2021/09/21 00:08:39;;;;;;;;;;;15.50;99.90;15.90;100052.00;;;;338634;28;91113;-93
2021/09/21 00:08:51;;;;;;;;;;;15.50;99.90;15.90;100049.00;;;;336498;28;82623;-93
2021/09/21 00:09:03;;;;;;;;;;;15.50;99.90;15.90;100051.00;;;;335045;29;91015;-93
2021/09/21 00:09:15;;;;;;;;;;;15.50;99.90;15.80;100053.00;;;;338006;28;82544;-92
2021/09/21 00:09:26;;;;;;;;;;;15.50;99.90;15.80;100043.00;;;;338622;28;91011;-93
2021/09/21 00:09:38;;;;;;;;;;;15.50;99.90;15.70;100045.00;;;;337879;28;83213;-92
2021/09/21 00:09:50;;;;;;;;;;;15.50;99.90;15.70;100048.00;;;;336379;28;90282;-93
2021/09/21 00:10:03;;;;;;;;;;;15.50;99.90;15.80;100040.00;;;;336646;28;83450;-93
2021/09/21 00:10:16;;;;;;;;;;;15.50;99.90;15.80;100055.00;;;;337569;28;92182;-93
2021/09/21 00:10:27;;;;;;;;;;;15.50;99.90;15.90;100045.00;;;;336824;28;83407;-92
2021/09/21 00:10:39;;;;;;;;;;;15.50;99.90;15.80;100048.00;;;;336295;28;92358;-93
2021/09/21 00:10:51;;;;;;;;;;;15.50;99.90;15.80;100046.00;;;;337972;28;82526;-92
2021/09/21 00:11:04;;;;;;;;;;;15.50;99.90;15.80;100039.00;;;;337440;28;89080;-92
2021/09/21 00:11:16;;;;;;;;;;;15.50;99.90;15.80;100039.00;;;;337647;28;82343;-92
2021/09/21 00:11:28;;;;;;;;;;;15.50;99.90;15.80;100053.00;;;;338919;28;90143;-93
2021/09/21 00:11:40;;;;;;;;;;;15.50;99.90;15.80;100051.00;;;;339353;28;82459;-93
2021/09/21 00:11:52;;;;;;;;;;;15.50;99.90;15.80;100049.00;;;;338739;28;89371;-92
2021/09/21 00:12:04;;;;;;;;;;;15.50;99.90;15.80;100055.00;;;;339142;28;82623;-93
2021/09/21 00:12:15;;;;;;;;;;;15.50;99.90;15.80;100054.00;;;;337407;28;90897;-93
2021/09/21 00:12:27;;;;;;;;;;;15.50;99.90;15.80;100053.00;;;;338091;28;82473;-92
2021/09/21 00:12:39;;;;;;;;;;;15.50;99.90;15.80;100049.00;;;;337645;28;90394;-93
2021/09/21 00:12:51;;;;;;;;;;;15.50;99.90;15.90;100049.00;;;;336677;28;83428;-92
2021/09/21 00:13:03;;;;;;;;;;;15.50;99.90;15.80;100051.00;;;;337101;28;89457;-93
2021/09/21 00:13:15;;;;;;;;;;;15.50;99.90;15.70;100052.00;;;;336704;28;83420;-93
2021/09/21 00:13:27;;;;;;;;;;;15.50;99.90;15.70;100049.00;;;;337573;28;91689;-93
2021/09/21 00:13:39;;;;;;;;;;;15.50;99.90;15.70;100057.00;;;;336795;28;82533;-93
2021/09/21 00:13:51;;;;;;;;;;;15.50;99.90;15.80;100050.00;;;;335058;29;90325;-93
2021/09/21 00:14:03;;;;;;;;;;;15.50;99.90;15.80;100048.00;;;;335363;28;83393;-93
2021/09/21 00:14:15;;;;;;;;;;;15.50;99.90;15.80;100054.00;;;;337778;28;90180;-93
2021/09/21 00:14:27;;;;;;;;;;;15.50;99.90;15.70;100052.00;;;;339404;28;83422;-92
2021/09/21 00:14:41;;;;;;;;;;;15.50;99.90;15.70;100055.00;;;;337201;28;92051;-93
2021/09/21 00:14:53;;;;;;;;;;;15.50;99.90;15.70;100059.00;;;;335497;29;83421;-93
2021/09/21 00:15:08;;;;;;;;;;;15.50;99.90;15.70;100057.00;;;;335097;29;90440;-93
2021/09/21 00:15:20;;;;;;;;;;;15.50;99.90;15.80;100057.00;;;;338020;28;82508;-93
2021/09/21 00:15:32;;;;;;;;;;;15.50;99.90;15.80;100055.00;;;;335035;29;91732;-93
2021/09/21 00:15:43;;;;;;;;;;;15.50;99.90;15.80;100050.00;;;;336773;28;82516;-93
2021/09/21 00:15:58;;;;;;;;;;;15.50;99.90;15.80;100053.00;;;;335102;29;90367;-93
2021/09/21 00:16:10;;;;;;;;;;;15.50;99.90;15.80;100049.00;;;;338069;28;83491;-92
2021/09/21 00:16:22;;;;;;;;;;;15.50;99.90;15.70;100056.00;;;;335109;29;89800;-93
2021/09/21 00:16:34;;;;;;;;;;;15.50;99.90;15.80;100051.00;;;;336697;28;82503;-92
2021/09/21 00:16:46;;;;;;;;;;;15.50;99.90;15.80;100052.00;;;;337274;28;91440;-93
2021/09/21 00:17:02;;;;;;;;;;;15.50;99.90;15.80;100050.00;;;;337978;28;83477;-93
2021/09/21 00:17:14;;;;;;;;;;;15.50;99.90;15.90;100054.00;;;;334958;29;91080;-93
2021/09/21 00:17:26;;;;;;;;;;;15.50;99.90;15.80;100056.00;;;;338058;28;82557;-93
2021/09/21 00:17:38;;;;;;;;;;;15.50;99.90;15.80;100049.00;;;;334881;28;91815;-93
2021/09/21 00:17:51;;;;;;;;;;;15.50;99.90;15.80;100049.00;;;;334122;29;83439;-94
2021/09/21 00:18:03;;;;;;;;;;;15.50;99.90;15.70;100050.00;;;;337448;28;91389;-93
2021/09/21 00:18:15;;;;;;;;;;;15.50;99.90;15.80;100050.00;;;;337821;28;83547;-93
2021/09/21 00:18:27;;;;;;;;;;;15.50;99.90;15.80;100056.00;;;;335004;29;91811;-93
2021/09/21 00:18:39;;;;;;;;;;;15.50;99.90;15.80;100053.00;;;;338006;28;83499;-93
2021/09/21 00:18:51;;;;;;;;;;;15.50;99.90;15.80;100055.00;;;;337597;28;91572;-94
2021/09/21 00:19:03;;;;;;;;;;;15.50;99.90;15.70;100056.00;;;;338071;28;83354;-93
2021/09/21 00:19:15;;;;;;;;;;;15.50;99.90;15.70;100059.00;;;;335014;29;92088;-93
2021/09/21 00:19:27;;;;;;;;;;;15.50;99.90;15.70;100051.00;;;;339293;28;83485;-92
2021/09/21 00:19:39;;;;;;;;;;;15.50;99.90;15.70;100053.00;;;;336149;28;91249;-92
2021/09/21 00:19:51;;;;;;;;;;;15.50;99.90;15.70;100049.00;;;;336613;28;82560;-93
2021/09/21 00:20:03;;;;;;;;;;;15.40;99.90;15.70;100060.00;;;;334807;29;91914;-93
2021/09/21 00:20:16;;;;;;;;;;;15.40;99.90;15.70;100052.00;;;;335930;28;83606;-92
2021/09/21 00:20:28;;;;;;;;;;;15.40;99.90;15.70;100057.00;;;;336489;28;89048;-93
2021/09/21 00:20:40;;;;;;;;;;;15.40;99.90;15.70;100049.00;;;;336635;28;83539;-93
2021/09/21 00:20:52;;;;;;;;;;;15.40;99.90;15.80;100050.00;;;;336258;28;91282;-93
2021/09/21 00:21:04;;;;;;;;;;;15.40;99.90;15.70;100054.00;;;;336825;28;82489;-93
2021/09/21 00:21:16;;;;;;;;;;;15.40;99.90;15.80;100042.00;;;;339011;28;90481;-92
2021/09/21 00:21:27;;;;;;;;;;;15.50;99.90;15.90;100052.00;;;;339182;28;83446;-93
2021/09/21 00:21:39;;;;;;;;;;;15.50;99.90;15.90;100056.00;;;;337479;28;91991;-93
2021/09/21 00:21:51;;;;;;;;;;;15.50;99.90;15.90;100056.00;;;;338003;28;83509;-93
2021/09/21 00:22:03;;;;;;;;;;;15.50;99.90;15.80;100048.00;;;;336163;28;91369;-93
2021/09/21 00:22:15;;;;;;;;;;;15.50;99.90;15.70;100051.00;;;;339299;28;83615;-93
2021/09/21 00:22:27;;;;;;;;;;;15.50;99.90;15.70;100054.00;;;;336397;28;90369;-93
2021/09/21 00:22:39;;;;;;;;;;;15.50;99.90;15.70;100057.00;;;;339382;28;83366;-93
2021/09/21 00:22:50;;;;;;;;;;;15.50;99.90;15.70;100056.00;;;;338810;28;92580;-93
2021/09/21 00:23:02;;;;;;;;;;;15.50;99.90;15.70;100059.00;;;;336617;28;82491;-93
2021/09/21 00:23:14;;;;;;;;;;;15.50;99.90;15.70;100053.00;;;;335562;28;91465;-93
2021/09/21 00:23:26;;;;;;;;;;;15.50;99.90;15.70;100039.00;;;;336536;28;83413;-93
2021/09/21 00:23:38;;;;;;;;;;;15.50;99.90;15.70;100059.00;;;;337329;28;91537;-93
2021/09/21 00:23:50;;;;;;;;;;;15.50;99.90;15.70;100050.00;;;;339254;28;82401;-93
2021/09/21 00:24:02;;;;;;;;;;;15.50;99.90;15.70;100056.00;;;;337568;28;91409;-92
2021/09/21 00:24:14;;;;;;;;;;;15.50;99.90;15.70;100057.00;;;;337861;28;83558;-93
2021/09/21 00:24:26;;;;;;;;;;;15.50;99.90;15.70;100053.00;;;;337656;28;91294;-93
2021/09/21 00:24:38;;;;;;;;;;;15.50;99.90;15.70;100054.00;;;;338057;28;82524;-92
2021/09/21 00:24:49;;;;;;;;;;;15.50;99.90;15.70;100067.00;;;;336187;28;92368;-93
2021/09/21 00:25:02;;;;;;;;;;;15.40;99.90;15.80;100053.00;;;;335410;29;83356;-93
2021/09/21 00:25:14;;;;;;;;;;;15.50;99.90;15.70;100054.00;;;;335066;29;91335;-93
2021/09/21 00:25:26;;;;;;;;;;;15.50;99.90;15.70;100061.00;;;;335379;29;82510;-93
2021/09/21 00:25:37;;;;;;;;;;;15.40;99.90;15.60;100060.00;;;;336243;28;91266;-92
2021/09/21 00:25:49;;;;;;;;;;;15.40;99.90;15.70;100057.00;;;;335201;29;83311;-93
2021/09/21 00:26:01;;;;;;;;;;;15.50;99.90;15.80;100052.00;;;;336238;28;91358;-93
2021/09/21 00:26:13;;;;;;;;;;;15.50;99.90;15.70;100064.00;;;;337737;28;82625;-93
2021/09/21 00:26:25;;;;;;;;;;;15.50;99.90;15.70;100055.00;;;;336527;28;91266;-93
2021/09/21 00:26:37;;;;;;;;;;;15.40;99.90;15.60;100063.00;;;;335369;29;83387;-93
2021/09/21 00:26:48;;;;;;;;;;;15.50;99.90;15.60;100059.00;;;;337450;28;92636;-93
2021/09/21 00:27:00;;;;;;;;;;;15.40;99.90;15.70;100057.00;;;;338102;28;83333;-93
2021/09/21 00:27:12;;;;;;;;;;;15.40;99.90;15.70;100055.00;;;;337577;28;89765;-93
2021/09/21 00:27:24;;;;;;;;;;;15.50;99.90;15.70;100056.00;;;;336644;28;82500;-93
2021/09/21 00:27:36;;;;;;;;;;;15.50;99.90;15.70;100060.00;;;;337709;28;90790;-93
2021/09/21 00:27:48;;;;;;;;;;;15.50;99.90;15.70;100056.00;;;;335353;29;83542;-94
2021/09/21 00:27:59;;;;;;;;;;;15.40;99.90;15.80;100057.00;;;;336331;28;90252;-93
2021/09/21 00:28:11;;;;;;;;;;;15.50;99.90;15.80;100053.00;;;;335392;29;83421;-93
2021/09/21 00:28:23;;;;;;;;;;;15.50;99.90;15.80;100054.00;;;;338983;28;91308;-93
2021/09/21 00:28:35;;;;;;;;;;;15.50;99.90;15.70;100056.00;;;;338170;28;82567;-93
2021/09/21 00:28:47;;;;;;;;;;;15.50;99.90;15.70;100058.00;;;;336289;28;93089;-93
2021/09/21 00:29:00;;;;;;;;;;;15.50;99.90;15.70;100064.00;;;;338035;28;83477;-93
2021/09/21 00:29:12;;;;;;;;;;;15.50;99.90;15.80;100059.00;;;;338336;28;91532;-93
2021/09/21 00:29:24;;;;;;;;;;;15.50;99.90;15.70;100061.00;;;;337994;28;83339;-93
2021/09/21 00:29:40;;;;;;;;;;;15.50;99.90;15.70;100064.00;;;;336001;28;92072;-93
2021/09/21 00:29:52;;;;;;;;;;;15.50;99.90;15.70;100066.00;;;;336786;28;82546;-92
2021/09/21 00:30:05;;;;;;;;;;;15.40;99.90;15.80;100056.00;;;;339089;28;88841;-93
2021/09/21 00:30:19;;;;;;;;;;;15.50;99.90;15.80;100063.00;;;;334176;29;82570;-93
2021/09/21 00:30:31;;;;;;;;;;;15.50;99.90;15.90;100060.00;;;;335074;29;88507;-93
2021/09/21 00:30:47;;;;;;;;;;;15.50;99.90;15.80;100056.00;;;;339393;28;83504;-93
2021/09/21 00:31:06;;;;;;;;;;;15.50;99.90;15.80;100063.00;;;;337509;28;91420;-93
2021/09/21 00:31:21;;;;;;;;;;;15.50;99.90;15.80;100064.00;;;;335456;29;82559;-92
2021/09/21 00:31:41;;;;;;;;;;;15.50;99.90;15.70;100054.00;;;;334955;29;91927;-93
2021/09/21 00:32:00;;;;;;;;;;;15.50;99.90;15.70;100065.00;;;;336642;28;83503;-93
2021/09/21 00:32:18;;;;;;;;;;;15.50;99.90;15.80;100061.00;;;;335401;28;90495;-93
2021/09/21 00:32:30;;;;;;;;;;;15.50;99.90;15.70;100061.00;;;;336776;28;82308;-93
2021/09/21 00:32:44;;;;;;;;;;;15.50;99.90;15.70;100055.00;;;;337434;28;91711;-93
2021/09/21 00:33:05;;;;;;;;;;;15.50;99.90;15.70;100057.00;;;;339045;28;83524;-93
2021/09/21 00:33:19;;;;;;;;;;;15.50;99.90;15.80;100061.00;;;;336293;28;91434;-93
2021/09/21 00:33:45;;;;;;;;;;;15.50;99.90;15.70;100059.00;;;;335423;28;83437;-93
2021/09/21 00:34:08;;;;;;;;;;;15.50;99.90;15.70;100062.00;;;;336263;28;91504;-93
2021/09/21 00:34:20;;;;;;;;;;;15.50;99.90;15.60;100065.00;;;;339320;28;82606;-93
2021/09/21 00:34:38;;;;;;;;;;;15.50;99.90;15.60;100065.00;;;;336397;28;91564;-93
2021/09/21 00:34:50;;;;;;;;;;;15.50;99.90;15.70;100065.00;;;;337881;28;83412;-93
2021/09/21 00:35:03;;;;;;;;;;;15.50;99.90;15.70;100059.00;;;;338722;28;91413;-93
2021/09/21 00:35:15;;;;;;;;;;;15.40;99.90;15.70;100057.00;;;;336141;28;82563;-92
2021/09/21 00:35:27;;;;;;;;;;;15.50;99.90;15.70;100060.00;;;;337454;28;91567;-92
2021/09/21 00:35:39;;;;;;;;;;;15.50;99.90;15.70;100064.00;;;;338799;28;82615;-93
2021/09/21 00:35:51;;;;;;;;;;;15.50;99.90;15.70;100060.00;;;;337713;28;90361;-94
2021/09/21 00:36:03;;;;;;;;;;;15.50;99.90;15.80;100065.00;;;;339017;28;82490;-93
2021/09/21 00:36:15;;;;;;;;;;;15.50;99.90;15.70;100069.00;;;;337262;28;92164;-93
2021/09/21 00:36:27;;;;;;;;;;;15.50;99.90;15.70;100064.00;;;;336675;28;82627;-93
2021/09/21 00:36:41;;;;;;;;;;;15.50;99.90;15.70;100064.00;;;;338970;28;90108;-93
2021/09/21 00:36:53;;;;;;;;;;;15.50;99.90;15.70;100059.00;;;;337967;28;82528;-93
2021/09/21 00:37:05;;;;;;;;;;;15.50;99.90;15.70;100063.00;;;;337691;28;91266;-93
2021/09/21 00:37:17;;;;;;;;;;;15.50;99.90;15.80;100062.00;;;;337966;28;83387;-93
2021/09/21 00:37:29;;;;;;;;;;;15.50;99.90;15.70;100064.00;;;;337544;28;89863;-93
2021/09/21 00:37:41;;;;;;;;;;;15.50;99.90;15.60;100061.00;;;;339323;28;83494;-93
2021/09/21 00:37:53;;;;;;;;;;;15.50;99.90;15.60;100057.00;;;;336298;28;90161;-92
2021/09/21 00:38:05;;;;;;;;;;;15.50;99.90;15.60;100060.00;;;;338795;28;82571;-93
2021/09/21 00:38:21;;;;;;;;;;;15.50;99.90;15.60;100068.00;;;;337260;28;91459;-93
2021/09/21 00:38:32;;;;;;;;;;;15.50;99.90;15.60;100062.00;;;;337977;28;83379;-93
2021/09/21 00:38:44;;;;;;;;;;;15.50;99.90;15.60;100062.00;;;;336304;28;91526;-93
2021/09/21 00:38:56;;;;;;;;;;;15.50;99.90;15.50;100063.00;;;;336427;28;82581;-93
2021/09/21 00:39:10;;;;;;;;;;;15.50;99.90;15.60;100065.00;;;;336604;28;91003;-93
2021/09/21 00:39:21;;;;;;;;;;;15.50;99.90;15.60;100068.00;;;;338050;28;83268;-92
2021/09/21 00:39:33;;;;;;;;;;;15.40;99.90;15.60;100063.00;;;;336377;28;91206;-93
2021/09/21 00:39:45;;;;;;;;;;;15.40;99.90;15.60;100058.00;;;;336728;28;82480;-93
2021/09/21 00:39:57;;;;;;;;;;;15.40;99.90;15.60;100062.00;;;;336464;28;90191;-92
2021/09/21 00:40:12;;;;;;;;;;;15.40;99.90;15.60;100064.00;;;;339373;28;83351;-93
2021/09/21 00:40:24;;;;;;;;;;;15.40;99.90;15.70;100060.00;;;;337566;28;92615;-93
2021/09/21 00:40:35;;;;;;;;;;;15.40;99.90;15.70;100063.00;;;;337781;28;83610;-93
2021/09/21 00:40:47;;;;;;;;;;;15.50;99.90;15.70;100069.00;;;;337706;28;87986;-93
2021/09/21 00:40:59;;;;;;;;;;;15.40;99.90;15.70;100068.00;;;;337938;28;83481;-94
2021/09/21 00:41:11;;;;;;;;;;;15.50;99.90;15.70;100064.00;;;;337227;28;90704;-93
2021/09/21 00:41:23;;;;;;;;;;;15.40;99.90;15.70;100056.00;;;;339242;28;82691;-92
2021/09/21 00:41:41;;;;;;;;;;;15.40;99.90;15.70;100056.00;;;;337285;28;91580;-93
2021/09/21 00:41:52;;;;;;;;;;;15.50;99.90;15.70;100059.00;;;;337976;28;82547;-93
2021/09/21 00:42:05;;;;;;;;;;;15.50;99.90;15.70;100067.00;;;;338674;28;89540;-93
2021/09/21 00:42:23;;;;;;;;;;;15.50;99.90;15.80;100060.00;;;;338047;28;82503;-93
2021/09/21 00:42:35;;;;;;;;;;;15.50;99.90;15.80;100065.00;;;;334771;29;90613;-94
2021/09/21 00:42:51;;;;;;;;;;;15.50;99.90;15.80;100064.00;;;;336350;28;82637;-93
2021/09/21 00:43:03;;;;;;;;;;;15.50;99.90;15.70;100065.00;;;;337536;28;91981;-93
2021/09/21 00:43:23;;;;;;;;;;;15.50;99.90;15.70;100057.00;;;;338094;28;83415;-93
2021/09/21 00:43:36;;;;;;;;;;;15.50;99.90;15.70;100061.00;;;;336083;28;91819;-93
2021/09/21 00:43:47;;;;;;;;;;;15.50;99.90;15.80;100062.00;;;;336702;28;82538;-93
2021/09/21 00:44:00;;;;;;;;;;;15.50;99.90;15.90;100056.00;;;;337605;28;90366;-93
2021/09/21 00:44:11;;;;;;;;;;;15.50;99.90;15.70;100057.00;;;;337509;28;82676;-93
2021/09/21 00:44:23;;;;;;;;;;;15.50;99.90;15.70;100067.00;;;;337537;28;89110;-93
2021/09/21 00:44:36;;;;;;;;;;;15.50;99.90;15.70;100062.00;;;;336542;28;83446;-94
2021/09/21 00:44:56;;;;;;;;;;;15.50;99.90;15.60;100064.00;;;;334799;29;91491;-93
2021/09/21 00:45:08;;;;;;;;;;;15.50;99.90;15.80;100061.00;;;;337871;28;83389;-92
2021/09/21 00:45:23;;;;;;;;;;;15.50;99.90;15.80;100059.00;;;;339029;28;91013;-93
2021/09/21 00:45:35;;;;;;;;;;;15.50;99.90;15.90;100063.00;;;;337766;28;83430;-93
2021/09/21 00:45:47;;;;;;;;;;;15.50;99.90;15.80;100060.00;;;;338961;28;89989;-92
2021/09/21 00:45:59;;;;;;;;;;;15.50;99.90;15.90;100067.00;;;;337869;28;82582;-93
2021/09/21 00:46:10;;;;;;;;;;;15.50;99.90;15.80;100068.00;;;;338836;28;91665;-93
2021/09/21 00:46:22;;;;;;;;;;;15.50;99.90;15.80;100058.00;;;;338011;28;83312;-93
2021/09/21 00:46:34;;;;;;;;;;;15.50;99.90;15.90;100057.00;;;;337621;28;90447;-93
2021/09/21 00:46:47;;;;;;;;;;;15.50;99.90;15.90;100068.00;;;;339299;28;82557;-93
2021/09/21 00:46:58;;;;;;;;;;;15.50;99.90;16.00;100063.00;;;;338837;28;92433;-93
2021/09/21 00:47:10;;;;;;;;;;;15.60;99.90;16.00;100062.00;;;;339323;28;82681;-93
2021/09/21 00:47:22;;;;;;;;;;;15.60;99.90;15.90;100052.00;;;;338138;28;90604;-93
2021/09/21 00:47:34;;;;;;;;;;;15.60;99.90;15.90;100061.00;;;;336531;28;83483;-93
2021/09/21 00:47:46;;;;;;;;;;;15.60;99.90;15.80;100064.00;;;;337648;28;90355;-92
2021/09/21 00:47:58;;;;;;;;;;;15.60;99.90;15.80;100064.00;;;;335482;29;83452;-92
2021/09/21 00:48:10;;;;;;;;;;;15.60;99.90;15.90;100056.00;;;;339275;28;90097;-93
2021/09/21 00:48:24;;;;;;;;;;;15.60;99.90;15.90;100055.00;;;;337791;28;83390;-93
2021/09/21 00:48:36;;;;;;;;;;;15.60;99.90;15.90;100064.00;;;;337374;28;89534;-92
2021/09/21 00:48:48;;;;;;;;;;;15.60;99.90;16.00;100067.00;;;;336812;28;82439;-93
2021/09/21 00:49:00;;;;;;;;;;;15.60;99.90;16.00;100066.00;;;;336175;28;91368;-93
2021/09/21 00:49:11;;;;;;;;;;;15.60;99.90;16.00;100060.00;;;;339236;28;82658;-93
2021/09/21 00:49:23;;;;;;;;;;;15.60;99.90;16.00;100068.00;;;;337642;28;90643;-93
2021/09/21 00:49:35;;;;;;;;;;;15.60;99.90;15.90;100061.00;;;;336620;28;83490;-93
2021/09/21 00:49:47;;;;;;;;;;;15.60;99.90;15.90;100061.00;;;;337596;28;91333;-93
2021/09/21 00:49:59;;;;;;;;;;;15.60;99.90;15.90;100064.00;;;;339344;28;83499;-93
2021/09/21 00:50:11;;;;;;;;;;;15.60;99.90;15.90;100059.00;;;;334416;29;91447;-93
2021/09/21 00:50:24;;;;;;;;;;;15.60;99.90;15.90;100059.00;;;;336160;28;82558;-93
2021/09/21 00:50:37;;;;;;;;;;;15.60;99.90;15.80;100068.00;;;;338487;28;89724;-93
2021/09/21 00:50:49;;;;;;;;;;;15.60;99.90;15.90;100066.00;;;;338045;28;83715;-93
2021/09/21 00:51:01;;;;;;;;;;;15.60;99.90;16.00;100061.00;;;;336274;28;92488;-92
2021/09/21 00:51:12;;;;;;;;;;;15.60;99.90;16.00;100064.00;;;;336726;28;82524;-93
2021/09/21 00:51:24;;;;;;;;;;;15.60;99.90;16.00;100063.00;;;;337481;28;90505;-93
2021/09/21 00:51:36;;;;;;;;;;;15.60;99.90;15.90;100054.00;;;;337840;28;83417;-93
2021/09/21 00:51:48;;;;;;;;;;;15.70;99.90;15.90;100074.00;;;;337331;28;90268;-93
2021/09/21 00:52:00;;;;;;;;;;;15.70;99.90;15.90;100061.00;;;;336479;28;83444;-93
2021/09/21 00:52:12;;;;;;;;;;;15.70;99.90;15.90;100061.00;;;;334835;29;90395;-93
2021/09/21 00:52:24;;;;;;;;;;;15.60;99.90;15.80;100059.00;;;;337722;28;83551;-93
2021/09/21 00:52:36;;;;;;;;;;;15.60;99.90;15.90;100073.00;;;;337186;28;90551;-93
2021/09/21 00:52:48;;;;;;;;;;;15.60;99.90;15.80;100064.00;;;;336696;28;83171;-93
2021/09/21 00:53:00;;;;;;;;;;;15.60;99.90;15.80;100061.00;;;;336156;28;92631;-93
2021/09/21 00:53:12;;;;;;;;;;;15.60;99.90;15.90;100056.00;;;;338906;28;83608;-93
2021/09/21 00:53:26;;;;;;;;;;;15.60;99.90;15.90;100057.00;;;;336212;28;90614;-94
2021/09/21 00:53:38;;;;;;;;;;;15.60;99.90;15.90;100062.00;;;;337975;28;82624;-93
2021/09/21 00:53:51;;;;;;;;;;;15.60;99.90;15.90;100057.00;;;;335003;29;90555;-93
2021/09/21 00:54:02;;;;;;;;;;;15.60;99.90;15.90;100059.00;;;;336341;28;83424;-93
2021/09/21 00:54:14;;;;;;;;;;;15.60;99.90;16.00;100063.00;;;;337509;28;91297;-93
2021/09/21 00:54:27;;;;;;;;;;;15.60;99.90;15.90;100054.00;;;;336720;28;83352;-92
2021/09/21 00:54:38;;;;;;;;;;;15.60;99.90;16.00;100054.00;;;;338883;28;91139;-93
2021/09/21 00:54:51;;;;;;;;;;;15.70;99.90;15.90;100055.00;;;;339157;28;83580;-94
2021/09/21 00:55:03;;;;;;;;;;;15.60;99.90;15.80;100057.00;;;;340182;28;91447;-93
2021/09/21 00:55:16;;;;;;;;;;;15.60;99.90;15.90;100058.00;;;;336716;28;82498;-93
2021/09/21 00:55:28;;;;;;;;;;;15.60;99.90;15.90;100060.00;;;;337628;28;91525;-93
2021/09/21 00:55:40;;;;;;;;;;;15.60;99.90;15.90;100059.00;;;;336700;28;83474;-92
2021/09/21 00:55:52;;;;;;;;;;;15.60;99.90;15.80;100062.00;;;;340050;28;90186;-93
2021/09/21 00:56:04;;;;;;;;;;;15.60;99.90;15.90;100059.00;;;;337525;28;82499;-92
2021/09/21 00:56:16;;;;;;;;;;;15.60;99.90;15.80;100055.00;;;;337103;28;91375;-92
2021/09/21 00:56:28;;;;;;;;;;;15.60;99.90;15.80;100060.00;;;;339251;28;82570;-93
2021/09/21 00:56:40;;;;;;;;;;;15.60;99.90;15.80;100057.00;;;;336321;28;90422;-93
2021/09/21 00:56:53;;;;;;;;;;;15.60;99.90;15.80;100063.00;;;;337973;28;83467;-92
2021/09/21 00:57:05;;;;;;;;;;;15.60;99.90;15.80;100060.00;;;;337365;28;91915;-93
2021/09/21 00:57:17;;;;;;;;;;;15.60;99.90;15.80;100058.00;;;;338006;28;83474;-93
2021/09/21 00:57:29;;;;;;;;;;;15.60;99.90;15.80;100052.00;;;;336088;28;90619;-92
2021/09/21 00:57:41;;;;;;;;;;;15.60;99.90;15.80;100059.00;;;;336602;28;83298;-93
2021/09/21 00:57:53;;;;;;;;;;;15.60;99.90;15.80;100056.00;;;;337609;28;90215;-93
2021/09/21 00:58:05;;;;;;;;;;;15.60;99.90;15.80;100063.00;;;;336497;28;83439;-93
2021/09/21 00:58:17;;;;;;;;;;;15.60;99.90;15.80;100049.00;;;;337560;28;91484;-93
2021/09/21 00:58:29;;;;;;;;;;;15.60;99.90;15.90;100058.00;;;;339454;28;83282;-93
2021/09/21 00:58:40;;;;;;;;;;;15.60;99.90;15.90;100058.00;;;;337620;28;91616;-93
2021/09/21 00:58:52;;;;;;;;;;;15.60;99.90;15.90;100056.00;;;;337995;28;83387;-93
2021/09/21 00:59:04;;;;;;;;;;;15.60;99.90;15.90;100060.00;;;;338892;28;90963;-93
2021/09/21 00:59:16;;;;;;;;;;;15.60;99.90;15.80;100060.00;;;;338824;28;82617;-92
2021/09/21 00:59:28;;;;;;;;;;;15.60;99.90;15.80;100058.00;;;;334949;29;90570;-94
2021/09/21 00:59:40;;;;;;;;;;;15.60;99.90;15.80;100059.00;;;;337464;28;83633;-92
2021/09/21 00:59:51;;;;;;;;;;;15.60;99.90;15.90;100060.00;;;;336223;28;91232;-93
2021/09/21 01:00:07;;;;;;;;;;;15.60;99.90;15.90;100064.00;;;;339292;28;83361;-93
2021/09/21 01:00:20;;;;;;;;;;;15.60;99.90;15.90;100052.00;;;;338968;28;90503;-93
2021/09/21 01:00:32;;;;;;;;;;;15.60;99.90;15.90;100062.00;;;;339359;28;83420;-94
2021/09/21 01:00:44;;;;;;;;;;;15.60;99.90;15.90;100057.00;;;;336051;28;89933;-93
2021/09/21 01:00:56;;;;;;;;;;;15.60;99.90;16.00;100068.00;;;;337949;28;82538;-93